sensor_id;sensor_type;location;lat;lon;timestamp;P1;durP1;ratioP1;P2;durP2;ratioP2
9186;SDS011;7273;48.902;9.410;2023-09-12T00:00:33;5.93;;;2.55;;
9186;SDS011;7273;48.902;9.410;2023-09-12T00:02:59;4.68;;;2.28;;
9186;SDS011;7273;48.902;9.410;2023-09-12T00:05:24;12.45;;;3.10;;
9186;SDS011;7273;48.902;9.410;2023-09-12T00:07:51;9.73;;;2.58;;
9186;SDS011;7273;48.902;9.410;2023-09-12T00:10:18;5.25;;;2.33;;
9186;SDS011;7273;48.902;9.410;2023-09-12T00:12:44;6.07;;;2.47;;
9186;SDS011;7273;48.902;9.410;2023-09-12T00:15:11;6.53;;;2.08;;
9186;SDS011;7273;48.902;9.410;2023-09-12T00:17:37;5.28;;;2.30;;
9186;SDS011;7273;48.902;9.410;2023-09-12T00:20:03;9.90;;;2.40;;
9186;SDS011;7273;48.902;9.410;2023-09-12T00:22:31;5.60;;;2.83;;
9186;SDS011;7273;48.902;9.410;2023-09-12T00:24:57;4.65;;;2.63;;
9186;SDS011;7273;48.902;9.410;2023-09-12T00:27:22;6.28;;;2.75;;
9186;SDS011;7273;48.902;9.410;2023-09-12T00:29:48;9.98;;;2.67;;
9186;SDS011;7273;48.902;9.410;2023-09-12T00:32:14;7.90;;;2.53;;
9186;SDS011;7273;48.902;9.410;2023-09-12T00:34:40;4.28;;;2.78;;
9186;SDS011;7273;48.902;9.410;2023-09-12T00:37:06;6.53;;;2.83;;
9186;SDS011;7273;48.902;9.410;2023-09-12T00:39:31;3.40;;;1.75;;
9186;SDS011;7273;48.902;9.410;2023-09-12T00:41:57;6.13;;;2.28;;
9186;SDS011;7273;48.902;9.410;2023-09-12T00:44:22;4.45;;;2.25;;
9186;SDS011;7273;48.902;9.410;2023-09-12T00:46:48;4.85;;;2.58;;
9186;SDS011;7273;48.902;9.410;2023-09-12T00:49:15;4.65;;;2.55;;
9186;SDS011;7273;48.902;9.410;2023-09-12T00:51:42;9.45;;;2.42;;
9186;SDS011;7273;48.902;9.410;2023-09-12T00:54:10;8.48;;;3.10;;
9186;SDS011;7273;48.902;9.410;2023-09-12T00:56:36;4.97;;;2.42;;
9186;SDS011;7273;48.902;9.410;2023-09-12T00:59:02;8.00;;;3.00;;
9186;SDS011;7273;48.902;9.410;2023-09-12T01:01:29;4.03;;;2.17;;
9186;SDS011;7273;48.902;9.410;2023-09-12T01:03:56;6.88;;;3.00;;
9186;SDS011;7273;48.902;9.410;2023-09-12T01:06:22;5.85;;;2.72;;
9186;SDS011;7273;48.902;9.410;2023-09-12T01:08:51;4.55;;;2.25;;
9186;SDS011;7273;48.902;9.410;2023-09-12T01:11:17;5.75;;;2.17;;
9186;SDS011;7273;48.902;9.410;2023-09-12T01:13:43;5.63;;;2.15;;
9186;SDS011;7273;48.902;9.410;2023-09-12T01:16:08;3.67;;;1.85;;
9186;SDS011;7273;48.902;9.410;2023-09-12T01:18:34;11.07;;;2.45;;
9186;SDS011;7273;48.902;9.410;2023-09-12T01:21:46;8.02;;;3.28;;
9186;SDS011;7273;48.902;9.410;2023-09-12T01:26:59;7.32;;;3.20;;
9186;SDS011;7273;48.902;9.410;2023-09-12T01:29:21;7.60;;;2.50;;
9186;SDS011;7273;48.902;9.410;2023-09-12T01:31:49;4.30;;;1.83;;
9186;SDS011;7273;48.902;9.410;2023-09-12T01:34:16;5.60;;;2.25;;
9186;SDS011;7273;48.902;9.410;2023-09-12T01:36:41;6.95;;;2.88;;
9186;SDS011;7273;48.902;9.410;2023-09-12T01:39:06;10.50;;;2.08;;
9186;SDS011;7273;48.902;9.410;2023-09-12T01:41:34;6.75;;;2.38;;
9186;SDS011;7273;48.902;9.410;2023-09-12T01:44:03;4.82;;;2.45;;
9186;SDS011;7273;48.902;9.410;2023-09-12T01:46:29;9.65;;;1.83;;
9186;SDS011;7273;48.902;9.410;2023-09-12T01:48:57;7.40;;;2.47;;
9186;SDS011;7273;48.902;9.410;2023-09-12T01:51:24;3.22;;;2.17;;
9186;SDS011;7273;48.902;9.410;2023-09-12T01:53:50;6.40;;;2.38;;
9186;SDS011;7273;48.902;9.410;2023-09-12T01:56:16;5.85;;;2.33;;
9186;SDS011;7273;48.902;9.410;2023-09-12T01:58:44;8.45;;;2.63;;
9186;SDS011;7273;48.902;9.410;2023-09-12T02:01:09;5.05;;;2.13;;
9186;SDS011;7273;48.902;9.410;2023-09-12T02:03:36;7.63;;;3.10;;
9186;SDS011;7273;48.902;9.410;2023-09-12T02:06:01;4.25;;;2.42;;
9186;SDS011;7273;48.902;9.410;2023-09-12T02:08:27;5.03;;;2.38;;
9186;SDS011;7273;48.902;9.410;2023-09-12T02:10:52;5.28;;;2.85;;
9186;SDS011;7273;48.902;9.410;2023-09-12T02:13:17;5.38;;;2.65;;
9186;SDS011;7273;48.902;9.410;2023-09-12T02:15:43;8.32;;;2.58;;
9186;SDS011;7273;48.902;9.410;2023-09-12T02:18:08;9.32;;;1.67;;
9186;SDS011;7273;48.902;9.410;2023-09-12T02:20:37;3.15;;;1.70;;
9186;SDS011;7273;48.902;9.410;2023-09-12T02:23:04;7.70;;;2.47;;
9186;SDS011;7273;48.902;9.410;2023-09-12T02:25:29;7.68;;;2.58;;
9186;SDS011;7273;48.902;9.410;2023-09-12T02:27:54;14.95;;;2.63;;
9186;SDS011;7273;48.902;9.410;2023-09-12T02:30:20;5.75;;;2.17;;
9186;SDS011;7273;48.902;9.410;2023-09-12T02:32:45;3.92;;;1.98;;
9186;SDS011;7273;48.902;9.410;2023-09-12T02:35:11;6.20;;;1.88;;
9186;SDS011;7273;48.902;9.410;2023-09-12T02:37:36;3.88;;;1.63;;
9186;SDS011;7273;48.902;9.410;2023-09-12T02:40:02;11.82;;;2.50;;
9186;SDS011;7273;48.902;9.410;2023-09-12T02:42:30;10.68;;;2.17;;
9186;SDS011;7273;48.902;9.410;2023-09-12T02:44:55;9.55;;;1.80;;
9186;SDS011;7273;48.902;9.410;2023-09-12T02:47:21;7.88;;;2.42;;
9186;SDS011;7273;48.902;9.410;2023-09-12T02:49:46;11.68;;;2.75;;
9186;SDS011;7273;48.902;9.410;2023-09-12T02:52:11;6.13;;;2.67;;
9186;SDS011;7273;48.902;9.410;2023-09-12T02:54:37;5.20;;;2.40;;
9186;SDS011;7273;48.902;9.410;2023-09-12T02:57:02;3.50;;;2.15;;
9186;SDS011;7273;48.902;9.410;2023-09-12T02:59:29;5.40;;;2.55;;
9186;SDS011;7273;48.902;9.410;2023-09-12T03:01:54;10.82;;;2.53;;
9186;SDS011;7273;48.902;9.410;2023-09-12T03:04:20;5.60;;;2.17;;
9186;SDS011;7273;48.902;9.410;2023-09-12T03:06:45;8.13;;;3.03;;
9186;SDS011;7273;48.902;9.410;2023-09-12T03:09:11;3.60;;;2.00;;
9186;SDS011;7273;48.902;9.410;2023-09-12T03:11:36;15.40;;;2.38;;
9186;SDS011;7273;48.902;9.410;2023-09-12T03:14:02;5.60;;;3.10;;
9186;SDS011;7273;48.902;9.410;2023-09-12T03:16:27;8.02;;;1.98;;
9186;SDS011;7273;48.902;9.410;2023-09-12T03:18:53;9.00;;;2.15;;
9186;SDS011;7273;48.902;9.410;2023-09-12T03:21:18;18.50;;;3.20;;
9186;SDS011;7273;48.902;9.410;2023-09-12T03:23:43;26.52;;;3.40;;
9186;SDS011;7273;48.902;9.410;2023-09-12T03:26:09;10.32;;;2.88;;
9186;SDS011;7273;48.902;9.410;2023-09-12T03:28:34;7.65;;;2.83;;
9186;SDS011;7273;48.902;9.410;2023-09-12T03:31:06;3.00;;;1.52;;
9186;SDS011;7273;48.902;9.410;2023-09-12T03:33:33;3.90;;;1.92;;
9186;SDS011;7273;48.902;9.410;2023-09-12T03:35:58;4.68;;;2.10;;
9186;SDS011;7273;48.902;9.410;2023-09-12T03:38:24;7.50;;;2.88;;
9186;SDS011;7273;48.902;9.410;2023-09-12T03:40:49;10.50;;;2.75;;
9186;SDS011;7273;48.902;9.410;2023-09-12T03:43:15;4.10;;;1.67;;
9186;SDS011;7273;48.902;9.410;2023-09-12T03:45:40;5.32;;;2.65;;
9186;SDS011;7273;48.902;9.410;2023-09-12T03:48:05;6.38;;;1.95;;
9186;SDS011;7273;48.902;9.410;2023-09-12T03:50:31;7.85;;;2.83;;
9186;SDS011;7273;48.902;9.410;2023-09-12T03:52:56;5.03;;;2.42;;
9186;SDS011;7273;48.902;9.410;2023-09-12T03:55:22;4.15;;;1.77;;
9186;SDS011;7273;48.902;9.410;2023-09-12T03:57:47;12.00;;;2.80;;
9186;SDS011;7273;48.902;9.410;2023-09-12T04:00:13;5.53;;;2.50;;
9186;SDS011;7273;48.902;9.410;2023-09-12T04:02:39;4.57;;;2.30;;
9186;SDS011;7273;48.902;9.410;2023-09-12T04:05:04;17.83;;;2.63;;
9186;SDS011;7273;48.902;9.410;2023-09-12T04:07:30;3.85;;;1.75;;
9186;SDS011;7273;48.902;9.410;2023-09-12T04:09:55;6.82;;;2.40;;
9186;SDS011;7273;48.902;9.410;2023-09-12T04:12:21;3.95;;;2.00;;
9186;SDS011;7273;48.902;9.410;2023-09-12T04:14:48;4.25;;;1.83;;
9186;SDS011;7273;48.902;9.410;2023-09-12T04:17:15;8.90;;;2.20;;
9186;SDS011;7273;48.902;9.410;2023-09-12T04:19:40;6.55;;;2.38;;
9186;SDS011;7273;48.902;9.410;2023-09-12T04:22:05;12.23;;;2.60;;
9186;SDS011;7273;48.902;9.410;2023-09-12T04:24:31;3.92;;;1.70;;
9186;SDS011;7273;48.902;9.410;2023-09-12T04:26:56;4.82;;;2.05;;
9186;SDS011;7273;48.902;9.410;2023-09-12T04:29:22;7.78;;;2.17;;
9186;SDS011;7273;48.902;9.410;2023-09-12T04:31:47;4.93;;;2.58;;
9186;SDS011;7273;48.902;9.410;2023-09-12T04:34:12;4.75;;;2.03;;
9186;SDS011;7273;48.902;9.410;2023-09-12T04:36:38;8.85;;;2.53;;
9186;SDS011;7273;48.902;9.410;2023-09-12T04:39:03;9.95;;;2.03;;
9186;SDS011;7273;48.902;9.410;2023-09-12T04:41:30;7.32;;;1.80;;
9186;SDS011;7273;48.902;9.410;2023-09-12T04:43:55;8.02;;;2.58;;
9186;SDS011;7273;48.902;9.410;2023-09-12T04:46:21;11.15;;;2.35;;
9186;SDS011;7273;48.902;9.410;2023-09-12T04:48:46;4.32;;;2.67;;
9186;SDS011;7273;48.902;9.410;2023-09-12T04:51:11;10.82;;;3.47;;
9186;SDS011;7273;48.902;9.410;2023-09-12T04:53:37;11.55;;;3.13;;
9186;SDS011;7273;48.902;9.410;2023-09-12T04:56:03;6.88;;;2.35;;
9186;SDS011;7273;48.902;9.410;2023-09-12T04:58:31;5.20;;;1.85;;
9186;SDS011;7273;48.902;9.410;2023-09-12T05:00:57;11.43;;;3.00;;
9186;SDS011;7273;48.902;9.410;2023-09-12T05:03:22;4.95;;;2.35;;
9186;SDS011;7273;48.902;9.410;2023-09-12T05:05:48;5.57;;;2.20;;
9186;SDS011;7273;48.902;9.410;2023-09-12T05:08:15;28.80;;;3.08;;
9186;SDS011;7273;48.902;9.410;2023-09-12T05:10:40;5.85;;;1.80;;
9186;SDS011;7273;48.902;9.410;2023-09-12T05:13:06;3.97;;;1.88;;
9186;SDS011;7273;48.902;9.410;2023-09-12T05:15:31;10.88;;;3.15;;
9186;SDS011;7273;48.902;9.410;2023-09-12T05:17:57;13.27;;;2.90;;
9186;SDS011;7273;48.902;9.410;2023-09-12T05:20:22;8.00;;;3.03;;
9186;SDS011;7273;48.902;9.410;2023-09-12T05:22:48;5.65;;;2.58;;
9186;SDS011;7273;48.902;9.410;2023-09-12T05:25:13;12.55;;;2.83;;
9186;SDS011;7273;48.902;9.410;2023-09-12T05:27:38;8.35;;;2.70;;
9186;SDS011;7273;48.902;9.410;2023-09-12T05:30:04;13.02;;;2.65;;
9186;SDS011;7273;48.902;9.410;2023-09-12T05:32:30;9.43;;;2.53;;
9186;SDS011;7273;48.902;9.410;2023-09-12T05:34:56;8.25;;;2.40;;
9186;SDS011;7273;48.902;9.410;2023-09-12T05:37:21;4.93;;;2.42;;
9186;SDS011;7273;48.902;9.410;2023-09-12T05:39:46;7.10;;;3.50;;
9186;SDS011;7273;48.902;9.410;2023-09-12T05:42:12;10.23;;;3.47;;
9186;SDS011;7273;48.902;9.410;2023-09-12T05:44:38;9.25;;;2.45;;
9186;SDS011;7273;48.902;9.410;2023-09-12T05:47:04;6.82;;;2.92;;
9186;SDS011;7273;48.902;9.410;2023-09-12T05:49:29;4.85;;;2.28;;
9186;SDS011;7273;48.902;9.410;2023-09-12T05:51:55;8.55;;;2.47;;
9186;SDS011;7273;48.902;9.410;2023-09-12T05:54:20;14.88;;;2.65;;
9186;SDS011;7273;48.902;9.410;2023-09-12T05:56:46;7.00;;;2.22;;
9186;SDS011;7273;48.902;9.410;2023-09-12T05:59:13;3.13;;;1.90;;
9186;SDS011;7273;48.902;9.410;2023-09-12T06:01:38;7.50;;;2.97;;
9186;SDS011;7273;48.902;9.410;2023-09-12T06:04:05;7.88;;;2.50;;
9186;SDS011;7273;48.902;9.410;2023-09-12T06:06:31;9.77;;;2.13;;
9186;SDS011;7273;48.902;9.410;2023-09-12T06:08:56;10.55;;;2.22;;
9186;SDS011;7273;48.902;9.410;2023-09-12T06:11:24;5.78;;;2.50;;
9186;SDS011;7273;48.902;9.410;2023-09-12T06:13:49;8.52;;;2.22;;
9186;SDS011;7273;48.902;9.410;2023-09-12T06:16:15;3.95;;;2.08;;
9186;SDS011;7273;48.902;9.410;2023-09-12T06:18:40;8.32;;;3.17;;
9186;SDS011;7273;48.902;9.410;2023-09-12T06:21:05;9.10;;;2.72;;
9186;SDS011;7273;48.902;9.410;2023-09-12T06:23:33;10.50;;;2.60;;
9186;SDS011;7273;48.902;9.410;2023-09-12T06:25:59;6.55;;;3.00;;
9186;SDS011;7273;48.902;9.410;2023-09-12T06:28:28;10.38;;;3.17;;
9186;SDS011;7273;48.902;9.410;2023-09-12T06:30:58;13.45;;;3.25;;
9186;SDS011;7273;48.902;9.410;2023-09-12T06:33:25;8.48;;;2.70;;
9186;SDS011;7273;48.902;9.410;2023-09-12T06:35:51;5.60;;;2.65;;
9186;SDS011;7273;48.902;9.410;2023-09-12T06:38:18;8.00;;;2.25;;
9186;SDS011;7273;48.902;9.410;2023-09-12T06:40:44;6.65;;;2.50;;
9186;SDS011;7273;48.902;9.410;2023-09-12T06:43:09;9.93;;;3.17;;
9186;SDS011;7273;48.902;9.410;2023-09-12T06:45:35;6.05;;;2.55;;
9186;SDS011;7273;48.902;9.410;2023-09-12T06:48:02;8.52;;;2.22;;
9186;SDS011;7273;48.902;9.410;2023-09-12T06:50:29;10.32;;;3.53;;
9186;SDS011;7273;48.902;9.410;2023-09-12T06:52:54;8.63;;;2.30;;
9186;SDS011;7273;48.902;9.410;2023-09-12T06:55:19;7.28;;;2.60;;
9186;SDS011;7273;48.902;9.410;2023-09-12T06:57:45;9.02;;;2.85;;
9186;SDS011;7273;48.902;9.410;2023-09-12T07:00:11;6.60;;;2.50;;
9186;SDS011;7273;48.902;9.410;2023-09-12T07:02:37;9.38;;;2.60;;
9186;SDS011;7273;48.902;9.410;2023-09-12T07:05:03;12.32;;;3.00;;
9186;SDS011;7273;48.902;9.410;2023-09-12T07:07:29;4.60;;;2.42;;
9186;SDS011;7273;48.902;9.410;2023-09-12T07:09:55;11.90;;;3.20;;
9186;SDS011;7273;48.902;9.410;2023-09-12T07:12:21;22.60;;;2.53;;
9186;SDS011;7273;48.902;9.410;2023-09-12T07:14:46;15.90;;;3.00;;
9186;SDS011;7273;48.902;9.410;2023-09-12T07:17:12;6.55;;;2.60;;
9186;SDS011;7273;48.902;9.410;2023-09-12T07:19:37;6.25;;;2.97;;
9186;SDS011;7273;48.902;9.410;2023-09-12T07:22:03;5.68;;;2.42;;
9186;SDS011;7273;48.902;9.410;2023-09-12T07:24:29;4.93;;;2.47;;
9186;SDS011;7273;48.902;9.410;2023-09-12T07:26:54;4.28;;;2.13;;
9186;SDS011;7273;48.902;9.410;2023-09-12T07:29:19;4.90;;;2.05;;
9186;SDS011;7273;48.902;9.410;2023-09-12T07:31:45;5.18;;;2.17;;
9186;SDS011;7273;48.902;9.410;2023-09-12T07:34:10;5.10;;;2.58;;
9186;SDS011;7273;48.902;9.410;2023-09-12T07:36:37;11.27;;;2.60;;
9186;SDS011;7273;48.902;9.410;2023-09-12T07:39:03;7.53;;;2.13;;
9186;SDS011;7273;48.902;9.410;2023-09-12T07:41:29;9.90;;;2.63;;
9186;SDS011;7273;48.902;9.410;2023-09-12T07:43:55;6.47;;;2.88;;
9186;SDS011;7273;48.902;9.410;2023-09-12T07:46:20;7.68;;;2.95;;
9186;SDS011;7273;48.902;9.410;2023-09-12T07:48:46;6.30;;;2.33;;
9186;SDS011;7273;48.902;9.410;2023-09-12T07:51:15;12.02;;;2.58;;
9186;SDS011;7273;48.902;9.410;2023-09-12T07:53:42;9.55;;;2.65;;
9186;SDS011;7273;48.902;9.410;2023-09-12T07:56:09;5.53;;;2.78;;
9186;SDS011;7273;48.902;9.410;2023-09-12T07:58:38;19.73;;;3.20;;
9186;SDS011;7273;48.902;9.410;2023-09-12T08:01:07;11.77;;;3.17;;
9186;SDS011;7273;48.902;9.410;2023-09-12T08:03:36;7.70;;;2.55;;
9186;SDS011;7273;48.902;9.410;2023-09-12T08:06:03;5.88;;;2.17;;
9186;SDS011;7273;48.902;9.410;2023-09-12T08:08:29;10.23;;;3.38;;
9186;SDS011;7273;48.902;9.410;2023-09-12T08:10:55;15.48;;;2.63;;
9186;SDS011;7273;48.902;9.410;2023-09-12T08:13:22;7.32;;;2.78;;
9186;SDS011;7273;48.902;9.410;2023-09-12T08:15:48;7.35;;;2.80;;
9186;SDS011;7273;48.902;9.410;2023-09-12T08:18:13;12.23;;;3.42;;
9186;SDS011;7273;48.902;9.410;2023-09-12T08:20:40;11.68;;;2.50;;
9186;SDS011;7273;48.902;9.410;2023-09-12T08:23:05;9.18;;;3.10;;
9186;SDS011;7273;48.902;9.410;2023-09-12T08:25:31;8.13;;;2.80;;
9186;SDS011;7273;48.902;9.410;2023-09-12T08:27:58;4.80;;;2.60;;
9186;SDS011;7273;48.902;9.410;2023-09-12T08:30:23;17.35;;;3.13;;
9186;SDS011;7273;48.902;9.410;2023-09-12T08:32:50;7.57;;;3.08;;
9186;SDS011;7273;48.902;9.410;2023-09-12T08:35:16;6.68;;;2.78;;
9186;SDS011;7273;48.902;9.410;2023-09-12T08:37:42;6.47;;;2.88;;
9186;SDS011;7273;48.902;9.410;2023-09-12T08:40:08;9.48;;;2.92;;
9186;SDS011;7273;48.902;9.410;2023-09-12T08:42:39;11.75;;;3.33;;
9186;SDS011;7273;48.902;9.410;2023-09-12T08:47:40;8.50;;;3.15;;
9186;SDS011;7273;48.902;9.410;2023-09-12T08:50:08;5.13;;;2.55;;
9186;SDS011;7273;48.902;9.410;2023-09-12T08:52:44;6.97;;;3.25;;
9186;SDS011;7273;48.902;9.410;2023-09-12T08:55:11;5.65;;;2.55;;
9186;SDS011;7273;48.902;9.410;2023-09-12T08:57:37;6.75;;;3.05;;
9186;SDS011;7273;48.902;9.410;2023-09-12T09:00:05;7.22;;;3.17;;
9186;SDS011;7273;48.902;9.410;2023-09-12T09:02:33;5.60;;;2.85;;
9186;SDS011;7273;48.902;9.410;2023-09-12T09:05:00;6.82;;;2.70;;
9186;SDS011;7273;48.902;9.410;2023-09-12T09:09:53;6.40;;;3.63;;
9186;SDS011;7273;48.902;9.410;2023-09-12T09:12:21;5.68;;;2.75;;
9186;SDS011;7273;48.902;9.410;2023-09-12T09:14:46;5.05;;;2.75;;
9186;SDS011;7273;48.902;9.410;2023-09-12T09:17:12;9.68;;;3.15;;
9186;SDS011;7273;48.902;9.410;2023-09-12T09:19:42;16.85;;;3.40;;
9186;SDS011;7273;48.902;9.410;2023-09-12T09:22:09;9.02;;;3.22;;
9186;SDS011;7273;48.902;9.410;2023-09-12T09:24:34;5.63;;;2.65;;
9186;SDS011;7273;48.902;9.410;2023-09-12T09:27:00;7.13;;;3.05;;
9186;SDS011;7273;48.902;9.410;2023-09-12T09:29:26;8.20;;;3.47;;
9186;SDS011;7273;48.902;9.410;2023-09-12T09:31:57;4.22;;;2.47;;
9186;SDS011;7273;48.902;9.410;2023-09-12T09:34:27;16.17;;;4.03;;
9186;SDS011;7273;48.902;9.410;2023-09-12T09:36:57;17.38;;;3.35;;
9186;SDS011;7273;48.902;9.410;2023-09-12T09:39:27;8.60;;;3.30;;
9186;SDS011;7273;48.902;9.410;2023-09-12T09:41:56;8.88;;;3.42;;
9186;SDS011;7273;48.902;9.410;2023-09-12T09:44:23;11.82;;;3.33;;
9186;SDS011;7273;48.902;9.410;2023-09-12T09:47:00;14.15;;;3.75;;
9186;SDS011;7273;48.902;9.410;2023-09-12T09:49:27;6.05;;;3.05;;
9186;SDS011;7273;48.902;9.410;2023-09-12T09:51:56;7.45;;;2.90;;
9186;SDS011;7273;48.902;9.410;2023-09-12T09:54:23;5.63;;;2.92;;
9186;SDS011;7273;48.902;9.410;2023-09-12T09:56:52;9.80;;;3.03;;
9186;SDS011;7273;48.902;9.410;2023-09-12T09:59:22;9.10;;;3.10;;
9186;SDS011;7273;48.902;9.410;2023-09-12T10:01:50;7.75;;;3.38;;
9186;SDS011;7273;48.902;9.410;2023-09-12T10:04:18;11.55;;;3.35;;
9186;SDS011;7273;48.902;9.410;2023-09-12T10:06:45;5.53;;;2.95;;
9186;SDS011;7273;48.902;9.410;2023-09-12T10:09:14;6.15;;;3.00;;
9186;SDS011;7273;48.902;9.410;2023-09-12T10:11:41;5.20;;;2.90;;
9186;SDS011;7273;48.902;9.410;2023-09-12T10:14:08;7.18;;;3.15;;
9186;SDS011;7273;48.902;9.410;2023-09-12T10:16:34;6.18;;;3.00;;
9186;SDS011;7273;48.902;9.410;2023-09-12T10:21:41;5.90;;;3.03;;
9186;SDS011;7273;48.902;9.410;2023-09-12T10:24:14;6.40;;;2.85;;
9186;SDS011;7273;48.902;9.410;2023-09-12T10:26:41;10.48;;;3.03;;
9186;SDS011;7273;48.902;9.410;2023-09-12T10:29:10;5.72;;;3.10;;
9186;SDS011;7273;48.902;9.410;2023-09-12T10:31:37;10.55;;;3.22;;
9186;SDS011;7273;48.902;9.410;2023-09-12T10:34:03;5.93;;;2.97;;
9186;SDS011;7273;48.902;9.410;2023-09-12T10:36:31;7.90;;;2.97;;
9186;SDS011;7273;48.902;9.410;2023-09-12T10:38:57;7.57;;;3.42;;
9186;SDS011;7273;48.902;9.410;2023-09-12T10:41:24;7.60;;;3.17;;
9186;SDS011;7273;48.902;9.410;2023-09-12T10:43:50;7.35;;;3.20;;
9186;SDS011;7273;48.902;9.410;2023-09-12T10:46:18;9.93;;;3.70;;
9186;SDS011;7273;48.902;9.410;2023-09-12T10:48:46;14.27;;;3.00;;
9186;SDS011;7273;48.902;9.410;2023-09-12T10:51:12;9.18;;;3.17;;
9186;SDS011;7273;48.902;9.410;2023-09-12T10:53:38;14.07;;;3.65;;
9186;SDS011;7273;48.902;9.410;2023-09-12T11:01:31;9.55;;;3.17;;
9186;SDS011;7273;48.902;9.410;2023-09-12T11:03:58;6.55;;;3.33;;
9186;SDS011;7273;48.902;9.410;2023-09-12T11:06:30;11.20;;;3.30;;
9186;SDS011;7273;48.902;9.410;2023-09-12T11:11:43;5.30;;;2.90;;
9186;SDS011;7273;48.902;9.410;2023-09-12T11:14:09;10.80;;;3.40;;
9186;SDS011;7273;48.902;9.410;2023-09-12T11:16:35;10.68;;;3.60;;
9186;SDS011;7273;48.902;9.410;2023-09-12T11:21:47;10.70;;;3.00;;
9186;SDS011;7273;48.902;9.410;2023-09-12T11:24:17;7.88;;;3.70;;
9186;SDS011;7273;48.902;9.410;2023-09-12T11:29:22;10.95;;;3.88;;
9186;SDS011;7273;48.902;9.410;2023-09-12T11:31:57;7.45;;;3.22;;
9186;SDS011;7273;48.902;9.410;2023-09-12T11:34:24;7.97;;;3.42;;
9186;SDS011;7273;48.902;9.410;2023-09-12T11:36:57;12.07;;;3.22;;
9186;SDS011;7273;48.902;9.410;2023-09-12T11:39:35;7.10;;;3.40;;
9186;SDS011;7273;48.902;9.410;2023-09-12T11:42:03;8.15;;;3.33;;
9186;SDS011;7273;48.902;9.410;2023-09-12T11:44:30;8.40;;;3.60;;
9186;SDS011;7273;48.902;9.410;2023-09-12T11:46:56;9.73;;;3.10;;
9186;SDS011;7273;48.902;9.410;2023-09-12T11:49:28;6.70;;;3.00;;
9186;SDS011;7273;48.902;9.410;2023-09-12T11:52:01;9.52;;;3.47;;
9186;SDS011;7273;48.902;9.410;2023-09-12T11:54:28;10.35;;;3.25;;
9186;SDS011;7273;48.902;9.410;2023-09-12T11:56:54;10.30;;;3.55;;
9186;SDS011;7273;48.902;9.410;2023-09-12T11:59:25;7.95;;;3.25;;
9186;SDS011;7273;48.902;9.410;2023-09-12T12:01:51;8.35;;;3.03;;
9186;SDS011;7273;48.902;9.410;2023-09-12T12:04:18;9.27;;;3.00;;
9186;SDS011;7273;48.902;9.410;2023-09-12T12:06:46;5.20;;;2.95;;
9186;SDS011;7273;48.902;9.410;2023-09-12T12:09:11;6.55;;;3.42;;
9186;SDS011;7273;48.902;9.410;2023-09-12T12:11:39;9.55;;;3.22;;
9186;SDS011;7273;48.902;9.410;2023-09-12T12:14:10;13.93;;;2.75;;
9186;SDS011;7273;48.902;9.410;2023-09-12T12:16:40;10.35;;;3.47;;
9186;SDS011;7273;48.902;9.410;2023-09-12T12:19:12;6.30;;;3.15;;
9186;SDS011;7273;48.902;9.410;2023-09-12T12:21:39;8.80;;;3.10;;
9186;SDS011;7273;48.902;9.410;2023-09-12T12:24:07;6.10;;;3.13;;
9186;SDS011;7273;48.902;9.410;2023-09-12T12:26:33;6.47;;;2.70;;
9186;SDS011;7273;48.902;9.410;2023-09-12T12:29:02;5.20;;;2.83;;
9186;SDS011;7273;48.902;9.410;2023-09-12T12:31:29;7.57;;;3.05;;
9186;SDS011;7273;48.902;9.410;2023-09-12T12:33:55;7.43;;;2.83;;
9186;SDS011;7273;48.902;9.410;2023-09-12T12:36:22;6.70;;;3.13;;
9186;SDS011;7273;48.902;9.410;2023-09-12T12:38:48;5.82;;;2.83;;
9186;SDS011;7273;48.902;9.410;2023-09-12T12:41:21;4.47;;;2.83;;
9186;SDS011;7273;48.902;9.410;2023-09-12T12:46:14;6.88;;;2.88;;
9186;SDS011;7273;48.902;9.410;2023-09-12T12:48:42;6.03;;;2.70;;
9186;SDS011;7273;48.902;9.410;2023-09-12T12:51:20;5.00;;;3.03;;
9186;SDS011;7273;48.902;9.410;2023-09-12T12:53:50;7.47;;;2.50;;
9186;SDS011;7273;48.902;9.410;2023-09-12T12:56:21;5.15;;;2.47;;
9186;SDS011;7273;48.902;9.410;2023-09-12T12:58:52;5.43;;;2.50;;
9186;SDS011;7273;48.902;9.410;2023-09-12T13:01:20;7.85;;;2.72;;
9186;SDS011;7273;48.902;9.410;2023-09-12T13:03:46;5.65;;;2.75;;
9186;SDS011;7273;48.902;9.410;2023-09-12T13:06:11;6.22;;;2.65;;
9186;SDS011;7273;48.902;9.410;2023-09-12T13:08:41;6.63;;;3.42;;
9186;SDS011;7273;48.902;9.410;2023-09-12T13:11:10;7.60;;;3.33;;
9186;SDS011;7273;48.902;9.410;2023-09-12T13:16:05;11.80;;;3.40;;
9186;SDS011;7273;48.902;9.410;2023-09-12T13:18:34;15.80;;;3.65;;
9186;SDS011;7273;48.902;9.410;2023-09-12T13:21:00;5.85;;;2.50;;
9186;SDS011;7273;48.902;9.410;2023-09-12T13:23:26;7.32;;;2.85;;
9186;SDS011;7273;48.902;9.410;2023-09-12T13:25:52;7.55;;;2.50;;
9186;SDS011;7273;48.902;9.410;2023-09-12T13:28:18;6.97;;;2.28;;
9186;SDS011;7273;48.902;9.410;2023-09-12T13:30:43;12.25;;;3.55;;
9186;SDS011;7273;48.902;9.410;2023-09-12T13:33:10;8.60;;;2.72;;
9186;SDS011;7273;48.902;9.410;2023-09-12T13:35:36;6.40;;;2.83;;
9186;SDS011;7273;48.902;9.410;2023-09-12T13:38:02;5.47;;;2.45;;
9186;SDS011;7273;48.902;9.410;2023-09-12T13:40:34;4.63;;;2.28;;
9186;SDS011;7273;48.902;9.410;2023-09-12T13:45:26;6.37;;;3.10;;
9186;SDS011;7273;48.902;9.410;2023-09-12T13:47:52;5.25;;;2.58;;
9186;SDS011;7273;48.902;9.410;2023-09-12T13:50:17;4.50;;;2.47;;
9186;SDS011;7273;48.902;9.410;2023-09-12T13:52:43;5.70;;;2.80;;
9186;SDS011;7273;48.902;9.410;2023-09-12T13:55:09;8.60;;;2.67;;
9186;SDS011;7273;48.902;9.410;2023-09-12T13:57:38;4.93;;;2.47;;
9186;SDS011;7273;48.902;9.410;2023-09-12T14:00:04;7.63;;;2.53;;
9186;SDS011;7273;48.902;9.410;2023-09-12T14:02:30;5.50;;;2.63;;
9186;SDS011;7273;48.902;9.410;2023-09-12T14:04:57;6.68;;;3.00;;
9186;SDS011;7273;48.902;9.410;2023-09-12T14:07:22;6.65;;;2.42;;
9186;SDS011;7273;48.902;9.410;2023-09-12T14:09:48;7.78;;;3.08;;
9186;SDS011;7273;48.902;9.410;2023-09-12T14:12:14;4.32;;;2.50;;
9186;SDS011;7273;48.902;9.410;2023-09-12T14:14:41;15.45;;;4.43;;
9186;SDS011;7273;48.902;9.410;2023-09-12T14:17:06;12.90;;;2.83;;
9186;SDS011;7273;48.902;9.410;2023-09-12T14:19:32;20.25;;;3.05;;
9186;SDS011;7273;48.902;9.410;2023-09-12T14:21:59;28.23;;;4.72;;
9186;SDS011;7273;48.902;9.410;2023-09-12T14:24:24;13.63;;;3.10;;
9186;SDS011;7273;48.902;9.410;2023-09-12T14:26:50;14.38;;;3.72;;
9186;SDS011;7273;48.902;9.410;2023-09-12T14:29:15;13.93;;;6.28;;
9186;SDS011;7273;48.902;9.410;2023-09-12T14:31:41;12.70;;;5.32;;
9186;SDS011;7273;48.902;9.410;2023-09-12T14:34:14;15.77;;;7.43;;
9186;SDS011;7273;48.902;9.410;2023-09-12T14:36:40;18.83;;;8.50;;
9186;SDS011;7273;48.902;9.410;2023-09-12T14:39:05;16.98;;;4.07;;
9186;SDS011;7273;48.902;9.410;2023-09-12T14:41:31;8.73;;;4.75;;
9186;SDS011;7273;48.902;9.410;2023-09-12T14:43:57;17.73;;;5.45;;
9186;SDS011;7273;48.902;9.410;2023-09-12T14:46:22;9.20;;;3.97;;
9186;SDS011;7273;48.902;9.410;2023-09-12T14:48:48;21.42;;;4.50;;
9186;SDS011;7273;48.902;9.410;2023-09-12T14:51:13;11.93;;;7.10;;
9186;SDS011;7273;48.902;9.410;2023-09-12T14:53:39;16.40;;;7.38;;
9186;SDS011;7273;48.902;9.410;2023-09-12T14:56:12;24.92;;;9.13;;
9186;SDS011;7273;48.902;9.410;2023-09-12T14:58:38;19.92;;;6.05;;
9186;SDS011;7273;48.902;9.410;2023-09-12T15:01:03;26.10;;;7.93;;
9186;SDS011;7273;48.902;9.410;2023-09-12T15:03:29;34.00;;;6.40;;
9186;SDS011;7273;48.902;9.410;2023-09-12T15:05:55;22.25;;;5.38;;
9186;SDS011;7273;48.902;9.410;2023-09-12T15:08:21;21.00;;;3.85;;
9186;SDS011;7273;48.902;9.410;2023-09-12T15:10:46;32.22;;;3.28;;
9186;SDS011;7273;48.902;9.410;2023-09-12T15:13:12;47.03;;;5.47;;
9186;SDS011;7273;48.902;9.410;2023-09-12T15:15:39;15.85;;;3.30;;
9186;SDS011;7273;48.902;9.410;2023-09-12T15:18:04;11.65;;;3.15;;
9186;SDS011;7273;48.902;9.410;2023-09-12T15:20:30;7.97;;;2.97;;
9186;SDS011;7273;48.902;9.410;2023-09-12T15:22:55;21.40;;;3.15;;
9186;SDS011;7273;48.902;9.410;2023-09-12T15:25:21;9.55;;;2.75;;
9186;SDS011;7273;48.902;9.410;2023-09-12T15:27:46;5.57;;;2.72;;
9186;SDS011;7273;48.902;9.410;2023-09-12T15:30:12;10.50;;;3.08;;
9186;SDS011;7273;48.902;9.410;2023-09-12T15:32:38;7.35;;;3.28;;
9186;SDS011;7273;48.902;9.410;2023-09-12T15:35:03;7.45;;;2.85;;
9186;SDS011;7273;48.902;9.410;2023-09-12T15:37:30;9.02;;;3.00;;
9186;SDS011;7273;48.902;9.410;2023-09-12T15:39:55;7.75;;;3.08;;